createdAt,value
2022-10-19T00:01:47.639Z,100.00
2022-10-19T00:04:35.997Z,100.00
2022-10-19T00:07:24.273Z,100.00
2022-10-19T00:10:12.496Z,100.00
2022-10-19T00:13:00.865Z,100.00
2022-10-19T00:15:49.120Z,100.00
2022-10-19T00:18:37.353Z,100.00
2022-10-19T00:21:26.775Z,100.00
2022-10-19T00:24:14.778Z,100.00
2022-10-19T00:27:02.452Z,100.00
2022-10-19T00:29:50.784Z,100.00
2022-10-19T00:32:38.965Z,100.00
2022-10-19T00:35:27.568Z,100.00
2022-10-19T00:38:21.719Z,100.00
2022-10-19T00:41:09.359Z,100.00
2022-10-19T00:44:04.459Z,100.00
2022-10-19T00:46:53.693Z,100.00
2022-10-19T00:49:46.686Z,100.00
2022-10-19T00:52:35.592Z,100.00
2022-10-19T00:55:25.679Z,100.00
2022-10-19T00:58:14.623Z,100.00
2022-10-19T01:01:09.099Z,100.00
2022-10-19T01:03:56.824Z,100.00
2022-10-19T01:06:45.203Z,100.00
2022-10-19T01:09:34.483Z,100.00
2022-10-19T01:12:51.537Z,100.00
2022-10-19T01:15:50.341Z,100.00
2022-10-19T01:18:54.973Z,100.00
2022-10-19T01:21:56.742Z,100.00
2022-10-19T01:25:55.186Z,100.00
2022-10-19T01:29:07.156Z,100.00
2022-10-19T01:32:06.623Z,100.00
2022-10-19T01:35:27.840Z,100.00
2022-10-19T01:38:27.728Z,100.00
2022-10-19T01:41:34.690Z,100.00
2022-10-19T01:44:36.404Z,100.00
2022-10-19T01:48:06.990Z,100.00
2022-10-19T01:51:20.432Z,100.00
2022-10-19T01:54:14.550Z,100.00
2022-10-19T01:57:07.707Z,100.00
2022-10-19T01:59:57.979Z,100.00
2022-10-19T02:02:51.130Z,100.00
2022-10-19T02:05:41.467Z,100.00
2022-10-19T02:08:47.954Z,100.00
2022-10-19T02:11:38.201Z,100.00
2022-10-19T02:14:35.066Z,100.00
2022-10-19T02:17:30.681Z,100.00
2022-10-19T02:20:20.702Z,100.00
2022-10-19T02:23:08.924Z,100.00
2022-10-19T02:25:58.631Z,100.00
2022-10-19T02:28:47.588Z,100.00
2022-10-19T02:31:36.505Z,100.00
2022-10-19T02:34:25.008Z,100.00
2022-10-19T02:37:13.353Z,100.00
2022-10-19T02:40:01.251Z,100.00
2022-10-19T02:43:01.745Z,100.00
2022-10-19T02:46:01.431Z,100.00
2022-10-19T02:48:52.125Z,100.00
2022-10-19T02:52:03.227Z,100.00
2022-10-19T02:54:51.454Z,100.00
2022-10-19T02:57:39.661Z,100.00
2022-10-19T03:00:27.847Z,100.00
2022-10-19T03:03:16.072Z,100.00
2022-10-19T03:06:04.433Z,100.00
2022-10-19T03:08:52.572Z,100.00
2022-10-19T03:11:40.844Z,100.00
2022-10-19T03:14:29.030Z,100.00
2022-10-19T03:17:17.301Z,100.00
2022-10-19T03:20:06.557Z,100.00
2022-10-19T03:22:54.762Z,100.00
2022-10-19T03:25:42.923Z,100.00
2022-10-19T03:28:31.958Z,100.00
2022-10-19T03:31:20.298Z,100.00
2022-10-19T03:34:08.810Z,100.00
2022-10-19T03:36:59.248Z,100.00
2022-10-19T03:39:47.779Z,100.00
2022-10-19T03:42:36.033Z,100.00
2022-10-19T03:45:24.209Z,100.00
2022-10-19T03:48:12.424Z,100.00
2022-10-19T03:51:10.123Z,100.00
2022-10-19T03:54:14.793Z,100.00
2022-10-19T03:57:02.551Z,100.00
2022-10-19T03:59:50.810Z,100.00
2022-10-19T04:02:39.178Z,100.00
2022-10-19T04:05:27.493Z,100.00
2022-10-19T04:08:15.765Z,100.00
2022-10-19T04:11:13.232Z,100.00
2022-10-19T04:14:02.042Z,100.00
2022-10-19T04:16:49.783Z,100.00
2022-10-19T04:19:37.915Z,100.00
2022-10-19T04:22:26.167Z,100.00
2022-10-19T04:25:14.379Z,100.00
2022-10-19T04:28:02.653Z,100.00
2022-10-19T04:30:50.837Z,100.00
2022-10-19T04:33:40.247Z,100.00
2022-10-19T04:36:28.161Z,100.00
2022-10-19T04:39:16.505Z,100.00
2022-10-19T04:42:08.753Z,100.00
2022-10-19T04:44:56.748Z,100.00
2022-10-19T04:47:44.994Z,100.00
2022-10-19T04:50:33.227Z,100.00
2022-10-19T04:53:22.002Z,100.00
2022-10-19T04:56:21.900Z,100.00
2022-10-19T04:59:10.144Z,100.00
2022-10-19T05:01:58.328Z,100.00
2022-10-19T05:04:48.501Z,100.00
2022-10-19T05:07:36.945Z,100.00
2022-10-19T05:10:25.295Z,100.00
2022-10-19T05:13:13.488Z,100.00
2022-10-19T05:16:06.291Z,100.00
2022-10-19T05:18:58.737Z,100.00
2022-10-19T05:21:46.882Z,100.00
2022-10-19T05:24:35.090Z,100.00
2022-10-19T05:27:23.375Z,100.00
2022-10-19T05:30:14.272Z,100.00
2022-10-19T05:33:02.566Z,100.00
2022-10-19T05:35:50.901Z,100.00
2022-10-19T05:38:39.329Z,100.00
2022-10-19T05:41:27.975Z,100.00
2022-10-19T05:44:22.424Z,100.00
2022-10-19T05:47:10.633Z,100.00
2022-10-19T05:49:58.868Z,100.00
2022-10-19T05:52:47.068Z,100.00
2022-10-19T05:55:36.266Z,100.00
2022-10-19T05:58:25.299Z,100.00
2022-10-19T06:01:15.163Z,100.00
2022-10-19T06:04:04.236Z,100.00
2022-10-19T06:06:51.941Z,100.00
2022-10-19T06:09:39.781Z,100.00
2022-10-19T06:12:27.961Z,100.00
2022-10-19T06:15:16.189Z,100.00
2022-10-19T06:18:05.383Z,100.00
2022-10-19T06:20:54.737Z,100.00
2022-10-19T06:26:36.531Z,100.00
2022-10-19T06:29:24.776Z,100.00
2022-10-19T06:32:12.983Z,100.00
2022-10-19T06:35:01.082Z,100.00
2022-10-19T06:37:49.374Z,100.00
2022-10-19T06:40:37.623Z,100.00
2022-10-19T06:43:26.208Z,100.00
2022-10-19T06:46:20.198Z,100.00
2022-10-19T06:49:07.821Z,100.00
2022-10-19T06:51:56.027Z,100.00
2022-10-19T06:54:44.190Z,100.00
2022-10-19T06:57:32.524Z,100.00
2022-10-19T07:00:21.070Z,100.00
2022-10-19T07:03:09.274Z,100.00
2022-10-19T07:06:05.174Z,100.00
2022-10-19T07:08:53.545Z,100.00
2022-10-19T07:11:45.930Z,100.00
2022-10-19T07:14:38.722Z,100.00
2022-10-19T07:17:26.992Z,100.00
2022-10-19T07:20:15.236Z,100.00
2022-10-19T07:23:03.522Z,100.00
2022-10-19T07:25:53.808Z,100.00
2022-10-19T07:28:44.428Z,100.00
2022-10-19T07:31:32.654Z,100.00
2022-10-19T07:34:23.189Z,100.00
2022-10-19T07:37:13.222Z,100.00
2022-10-19T07:40:01.420Z,100.00
2022-10-19T07:42:49.620Z,100.00
2022-10-19T07:45:37.804Z,100.00
2022-10-19T07:48:26.122Z,100.00
2022-10-19T07:51:17.076Z,100.00
2022-10-19T07:54:06.477Z,100.00
2022-10-19T07:56:54.781Z,100.00
2022-10-19T07:59:42.985Z,100.00
2022-10-19T08:02:39.642Z,100.00
2022-10-19T08:05:39.458Z,100.00
2022-10-19T08:08:28.520Z,100.00
2022-10-19T08:11:23.525Z,100.00
2022-10-19T08:14:11.843Z,100.00
2022-10-19T08:17:01.068Z,100.00
2022-10-19T08:19:49.659Z,100.00
2022-10-19T08:22:37.895Z,100.00
2022-10-19T08:25:26.080Z,100.00
2022-10-19T08:28:14.594Z,100.00
2022-10-19T08:31:15.245Z,100.00
2022-10-19T08:34:04.104Z,100.00
2022-10-19T08:36:52.303Z,100.00
2022-10-19T08:39:40.588Z,100.00
2022-10-19T08:42:52.796Z,100.00
2022-10-19T08:46:07.079Z,100.00
2022-10-19T08:48:56.278Z,100.00
2022-10-19T08:51:56.235Z,100.00
2022-10-19T08:54:53.401Z,100.00
2022-10-19T08:58:40.580Z,100.00
2022-10-19T09:01:43.727Z,100.00
2022-10-19T09:04:48.460Z,100.00
2022-10-19T09:07:45.619Z,100.00
2022-10-19T09:10:38.983Z,100.00
2022-10-19T09:14:04.281Z,100.00
2022-10-19T09:17:02.403Z,98.88
2022-10-19T09:19:51.198Z,99.68
2022-10-19T09:22:41.730Z,98.86
2022-10-19T09:25:32.411Z,98.61
2022-10-19T09:28:44.951Z,98.23
2022-10-19T09:31:43.419Z,96.58
2022-10-19T09:34:43.902Z,96.30
2022-10-19T09:37:40.613Z,93.70
2022-10-19T09:40:31.095Z,93.04
2022-10-19T09:43:21.714Z,93.27
2022-10-19T09:46:20.254Z,92.42
2022-10-19T09:49:08.184Z,93.28
2022-10-19T09:51:56.332Z,91.91
2022-10-19T09:54:45.051Z,92.99
2022-10-19T09:57:33.900Z,93.40
2022-10-19T10:00:36.376Z,93.03
2022-10-19T10:03:43.323Z,92.80
2022-10-19T10:06:31.720Z,92.81
2022-10-19T10:09:27.237Z,91.68
2022-10-19T10:12:16.533Z,92.04
2022-10-19T10:15:07.665Z,91.96
2022-10-19T10:17:58.077Z,89.62
2022-10-19T10:21:25.288Z,91.07
2022-10-19T10:24:16.347Z,89.20
2022-10-19T10:27:06.474Z,89.82
2022-10-19T10:32:54.843Z,86.76
2022-10-19T10:35:53.434Z,87.27
2022-10-19T10:38:51.935Z,87.77
2022-10-19T10:41:44.496Z,87.15
2022-10-19T10:44:36.636Z,87.89
2022-10-19T10:47:27.106Z,87.39
2022-10-19T10:50:31.808Z,84.26
2022-10-19T10:53:46.900Z,84.76
2022-10-19T10:56:35.485Z,83.73
2022-10-19T10:59:32.831Z,82.46
2022-10-19T11:02:41.552Z,80.32
2022-10-19T11:05:39.049Z,78.23
2022-10-19T11:08:49.359Z,78.92
2022-10-19T11:11:46.547Z,78.74
2022-10-19T11:14:46.595Z,79.39
2022-10-19T11:17:39.220Z,79.09
2022-10-19T11:20:32.520Z,77.69
2022-10-19T11:23:54.781Z,75.46
2022-10-19T11:27:19.631Z,74.23
2022-10-19T11:30:19.002Z,74.28
2022-10-19T11:33:55.820Z,74.13
2022-10-19T11:37:14.747Z,73.82
2022-10-19T11:40:24.151Z,71.35
2022-10-19T11:43:44.236Z,71.27
2022-10-19T11:47:19.160Z,69.84
2022-10-19T11:50:33.681Z,68.51
2022-10-19T11:54:14.446Z,68.38
2022-10-19T11:57:20.526Z,68.78
2022-10-19T12:00:38.239Z,69.14
2022-10-19T12:03:47.529Z,72.13
2022-10-19T12:07:04.557Z,71.78
2022-10-19T12:10:04.566Z,71.42
2022-10-19T12:12:58.938Z,71.66
2022-10-19T12:15:57.523Z,71.48
2022-10-19T12:18:51.707Z,73.06
2022-10-19T12:21:43.476Z,71.25
2022-10-19T12:24:34.534Z,68.71
2022-10-19T12:27:35.722Z,68.01
2022-10-19T12:30:24.901Z,69.38
2022-10-19T12:33:36.698Z,67.91
2022-10-19T12:36:56.956Z,68.46
2022-10-19T12:40:11.888Z,69.40
2022-10-19T12:43:23.222Z,68.40
2022-10-19T12:46:39.669Z,68.56
2022-10-19T12:49:30.690Z,66.31
2022-10-19T12:52:39.301Z,67.85
2022-10-19T12:55:34.806Z,68.91
2022-10-19T12:58:24.434Z,68.42
2022-10-19T13:01:21.443Z,69.20
2022-10-19T13:04:26.247Z,68.46
2022-10-19T13:07:18.850Z,67.48
2022-10-19T13:10:20.357Z,67.71
2022-10-19T13:13:55.565Z,66.38
2022-10-19T13:17:01.055Z,66.28
2022-10-19T13:19:49.343Z,70.50
2022-10-19T13:22:37.827Z,67.93
2022-10-19T13:25:37.171Z,63.77
2022-10-19T13:28:38.089Z,65.16
2022-10-19T13:31:31.375Z,66.53
2022-10-19T13:34:19.114Z,64.87
2022-10-19T13:37:13.425Z,63.83
2022-10-19T13:40:24.657Z,65.04
2022-10-19T13:44:02.193Z,63.58
2022-10-19T13:47:54.526Z,64.78
2022-10-19T13:50:59.233Z,62.58
2022-10-19T13:54:44.090Z,62.89
2022-10-19T13:57:56.158Z,62.70
2022-10-19T14:01:11.500Z,63.64
2022-10-19T14:04:20.916Z,64.43
2022-10-19T14:08:03.055Z,61.83
2022-10-19T14:11:02.906Z,61.43
2022-10-19T14:14:19.831Z,60.97
2022-10-19T14:17:28.563Z,60.86
2022-10-19T14:20:34.124Z,60.67
2022-10-19T14:23:29.959Z,62.07
2022-10-19T14:26:24.784Z,60.93
2022-10-19T14:29:13.737Z,61.13
2022-10-19T14:32:03.837Z,63.25
2022-10-19T14:34:52.908Z,62.08
2022-10-19T14:37:43.966Z,61.93
2022-10-19T14:40:41.544Z,61.95
2022-10-19T14:43:34.319Z,62.53
2022-10-19T14:46:31.203Z,64.10
2022-10-19T14:49:18.880Z,65.62
2022-10-19T14:52:09.959Z,69.19
2022-10-19T14:55:05.612Z,68.81
2022-10-19T14:57:54.128Z,66.66
2022-10-19T15:00:45.550Z,67.74
2022-10-19T15:03:34.657Z,66.45
2022-10-19T15:06:36.020Z,67.58
2022-10-19T15:09:47.439Z,68.99
2022-10-19T15:12:42.412Z,70.20
2022-10-19T15:15:33.958Z,71.41
2022-10-19T15:18:44.396Z,71.09
2022-10-19T15:21:33.464Z,73.71
2022-10-19T15:24:27.964Z,76.24
2022-10-19T15:27:22.311Z,77.21
2022-10-19T15:30:24.254Z,79.75
2022-10-19T15:33:15.568Z,82.22
2022-10-19T15:36:08.488Z,82.88
2022-10-19T15:39:17.589Z,84.58
2022-10-19T15:42:29.560Z,85.78
2022-10-19T15:45:37.636Z,86.47
2022-10-19T15:48:52.496Z,87.28
2022-10-19T15:51:46.274Z,88.31
2022-10-19T15:54:34.645Z,88.95
2022-10-19T15:57:28.254Z,89.12
2022-10-19T16:00:17.809Z,89.22
2022-10-19T16:03:06.250Z,90.77
2022-10-19T16:05:55.250Z,91.27
2022-10-19T16:08:46.382Z,91.82
2022-10-19T16:11:35.553Z,92.18
2022-10-19T16:14:26.605Z,93.05
2022-10-19T16:39:44.743Z,95.74
2022-10-19T16:42:34.774Z,95.01
2022-10-19T16:45:23.292Z,95.96
2022-10-19T16:47:50.810Z,96.93
2022-10-19T16:50:17.676Z,97.40
2022-10-19T16:52:44.390Z,97.51
2022-10-19T16:55:11.643Z,97.70
2022-10-19T16:57:38.376Z,97.83
2022-10-19T17:00:09.384Z,97.75
2022-10-19T17:02:39.869Z,98.04
2022-10-19T17:05:09.967Z,98.61
2022-10-19T17:07:36.703Z,98.95
2022-10-19T17:10:03.702Z,98.79
2022-10-19T17:12:30.393Z,98.97
2022-10-19T17:15:11.538Z,98.94
2022-10-19T17:17:43.707Z,99.55
2022-10-19T17:20:11.345Z,99.46
2022-10-19T17:22:38.090Z,99.72
2022-10-19T17:25:05.900Z,99.14
2022-10-19T17:27:32.602Z,98.61
2022-10-19T17:29:59.243Z,99.14
2022-10-19T17:32:26.023Z,100.00
2022-10-19T17:34:54.513Z,100.00
2022-10-19T17:37:21.239Z,100.00
2022-10-19T17:39:51.351Z,100.00
2022-10-19T17:42:18.295Z,100.00
2022-10-19T17:44:44.984Z,100.00
2022-10-19T17:47:11.714Z,100.00
2022-10-19T17:49:38.610Z,100.00
2022-10-19T17:52:05.555Z,100.00
2022-10-19T17:54:43.367Z,100.00
2022-10-19T17:57:18.942Z,100.00
2022-10-19T17:59:52.512Z,100.00
2022-10-19T18:02:20.521Z,100.00
2022-10-19T18:04:47.223Z,100.00
2022-10-19T18:07:13.941Z,100.00
2022-10-19T18:09:40.816Z,100.00
2022-10-19T18:12:14.468Z,100.00
2022-10-19T18:14:42.087Z,100.00
2022-10-19T18:17:10.503Z,100.00
2022-10-19T18:19:37.386Z,100.00
2022-10-19T18:22:04.337Z,100.00
2022-10-19T18:24:32.923Z,100.00
2022-10-19T18:26:59.693Z,100.00
2022-10-19T18:29:27.082Z,100.00
2022-10-19T18:31:55.127Z,100.00
2022-10-19T18:34:26.156Z,100.00
2022-10-19T18:36:54.362Z,100.00
2022-10-19T18:39:40.211Z,100.00
2022-10-19T18:42:13.813Z,100.00
2022-10-19T18:44:40.792Z,100.00
2022-10-19T18:47:07.512Z,100.00
2022-10-19T18:49:34.341Z,100.00
2022-10-19T18:52:01.123Z,100.00
2022-10-19T18:54:28.184Z,100.00
2022-10-19T18:56:55.594Z,100.00
2022-10-19T18:59:22.728Z,100.00
2022-10-19T19:01:49.766Z,100.00
2022-10-19T19:04:16.704Z,100.00
2022-10-19T19:06:43.473Z,100.00
2022-10-19T19:09:12.856Z,100.00
2022-10-19T19:11:41.200Z,100.00
2022-10-19T19:14:17.117Z,100.00
2022-10-19T19:16:45.349Z,100.00
2022-10-19T19:19:15.953Z,100.00
2022-10-19T19:21:44.569Z,100.00
2022-10-19T19:24:18.937Z,100.00
2022-10-19T19:26:50.492Z,100.00
2022-10-19T19:29:19.492Z,100.00
2022-10-19T19:31:47.851Z,100.00
2022-10-19T19:34:14.782Z,100.00
2022-10-19T19:36:46.738Z,100.00
2022-10-19T19:39:20.345Z,100.00
2022-10-19T19:41:49.240Z,100.00
2022-10-19T19:44:17.250Z,100.00
2022-10-19T19:46:44.015Z,100.00
2022-10-19T19:49:11.077Z,100.00
2022-10-19T19:51:37.913Z,100.00
2022-10-19T19:54:05.559Z,100.00
2022-10-19T19:56:32.862Z,100.00
2022-10-19T19:59:03.776Z,100.00
2022-10-19T20:01:32.490Z,100.00
2022-10-19T20:06:31.392Z,100.00
2022-10-19T20:08:58.093Z,100.00
2022-10-19T20:11:28.106Z,100.00
2022-10-19T20:13:55.677Z,100.00
2022-10-19T20:16:29.196Z,100.00
2022-10-19T20:19:20.172Z,100.00
2022-10-19T20:21:46.836Z,100.00
2022-10-19T20:24:13.632Z,100.00
2022-10-19T20:26:40.444Z,100.00
2022-10-19T20:29:07.261Z,100.00
2022-10-19T20:31:39.169Z,100.00
2022-10-19T20:34:14.142Z,100.00
2022-10-19T20:36:42.599Z,100.00
2022-10-19T20:39:10.154Z,100.00
2022-10-19T20:41:37.021Z,100.00
2022-10-19T20:44:03.903Z,100.00
2022-10-19T20:46:31.871Z,100.00
2022-10-19T20:49:01.406Z,100.00
2022-10-19T20:51:36.578Z,100.00
2022-10-19T20:54:08.306Z,100.00
2022-10-19T20:56:39.230Z,100.00
2022-10-19T20:59:16.747Z,100.00
2022-10-19T21:01:45.914Z,100.00
2022-10-19T21:04:15.596Z,100.00
2022-10-19T21:06:46.359Z,100.00
2022-10-19T21:09:23.380Z,100.00
2022-10-19T21:11:54.158Z,100.00
2022-10-19T21:14:28.140Z,100.00
2022-10-19T21:17:00.627Z,100.00
2022-10-19T21:19:29.618Z,100.00
2022-10-19T21:22:02.083Z,100.00
2022-10-19T21:24:33.444Z,100.00
2022-10-19T21:27:02.131Z,100.00
2022-10-19T21:29:37.454Z,100.00
2022-10-19T21:32:04.662Z,100.00
2022-10-19T21:34:32.542Z,100.00
2022-10-19T21:37:02.900Z,100.00
2022-10-19T21:39:29.737Z,100.00
2022-10-19T21:41:57.050Z,100.00
2022-10-19T21:44:23.947Z,100.00
2022-10-19T21:46:50.790Z,100.00
2022-10-19T21:49:18.129Z,100.00
2022-10-19T21:51:48.573Z,100.00
2022-10-19T21:54:20.008Z,100.00
2022-10-19T21:56:48.087Z,100.00
2022-10-19T21:59:16.145Z,100.00
2022-10-19T22:01:43.403Z,100.00
2022-10-19T22:04:17.543Z,100.00
2022-10-19T22:06:45.135Z,100.00
2022-10-19T22:09:21.090Z,100.00
2022-10-19T22:11:48.685Z,100.00
2022-10-19T22:14:17.037Z,100.00
2022-10-19T22:16:44.972Z,100.00
2022-10-19T22:19:12.546Z,100.00
2022-10-19T22:21:40.589Z,100.00
2022-10-19T22:24:13.025Z,100.00
2022-10-19T22:26:46.543Z,100.00
2022-10-19T22:29:14.198Z,100.00
2022-10-19T22:31:40.916Z,100.00
2022-10-19T22:34:13.029Z,100.00
2022-10-19T22:36:39.848Z,100.00
2022-10-19T22:39:07.455Z,100.00
2022-10-19T22:41:34.248Z,100.00
2022-10-19T22:44:01.129Z,100.00
2022-10-19T22:46:27.863Z,100.00
2022-10-19T22:48:54.611Z,100.00
2022-10-19T22:51:21.516Z,100.00
2022-10-19T22:53:48.275Z,100.00
2022-10-19T22:56:15.250Z,100.00
2022-10-19T22:58:42.004Z,100.00
2022-10-19T23:01:13.667Z,100.00
2022-10-19T23:03:41.415Z,100.00
2022-10-19T23:06:11.740Z,100.00
2022-10-19T23:08:39.572Z,100.00
2022-10-19T23:11:07.262Z,100.00
2022-10-19T23:13:33.990Z,100.00
2022-10-19T23:16:01.201Z,100.00
2022-10-19T23:18:34.881Z,100.00
2022-10-19T23:21:06.526Z,100.00
2022-10-19T23:23:36.862Z,100.00
2022-10-19T23:26:08.132Z,100.00
2022-10-19T23:28:37.653Z,100.00
2022-10-19T23:31:11.957Z,100.00
2022-10-19T23:33:39.804Z,100.00
2022-10-19T23:36:20.264Z,100.00
2022-10-19T23:38:49.747Z,100.00
2022-10-19T23:41:18.381Z,100.00
2022-10-19T23:43:45.910Z,100.00
2022-10-19T23:46:13.380Z,100.00
2022-10-19T23:48:41.972Z,100.00
2022-10-19T23:51:13.140Z,100.00
2022-10-19T23:53:43.302Z,100.00
2022-10-19T23:56:21.426Z,100.00
2022-10-19T23:58:49.202Z,100.00
